Time;durP1;ratioP1;P1;durP2;ratioP2;P2;SDS_P1;SDS_P2;PMS_P1;PMS_P2;Temp;Humidity;BMP_temperature;BMP_pressure;BME280_temperature;BME280_humidity;BME280_pressure;Samples;Min_cycle;Max_cycle;Signal;HPM_P1;HPM_P2
2022/12/12 00:01:15;;;;;;;54.80;29.33;;;;;;;-0.69;100.00;99809.44;5074202;28;20197;-75
2022/12/12 00:03:42;;;;;;;55.17;29.60;;;;;;;-0.70;100.00;99811.19;5074099;28;20238;-74
2022/12/12 00:06:08;;;;;;;56.55;28.88;;;;;;;-0.78;100.00;99810.38;5072764;28;20225;-74
2022/12/12 00:08:36;;;;;;;55.20;27.92;;;;;;;-0.74;100.00;99822.69;5072474;28;20250;-74
2022/12/12 00:11:03;;;;;;;52.15;28.40;;;;;;;-0.77;100.00;99819.19;5072670;28;20208;-74
2022/12/12 00:13:31;;;;;;;50.03;27.95;;;;;;;-0.74;100.00;99814.75;5083834;28;20224;-74
2022/12/12 00:15:58;;;;;;;51.65;25.92;;;;;;;-0.75;100.00;99815.63;5075619;28;20319;-74
2022/12/12 00:18:25;;;;;;;49.65;27.80;;;;;;;-0.76;100.00;99816.53;5080643;28;20224;-75
2022/12/12 00:20:52;;;;;;;51.78;28.80;;;;;;;-0.72;100.00;99828.84;5091524;28;20219;-75
2022/12/12 00:23:19;;;;;;;55.20;27.60;;;;;;;-0.72;100.00;99820.91;5078149;28;20205;-73
2022/12/12 00:25:45;;;;;;;50.33;27.35;;;;;;;-0.69;100.00;99820.00;5091680;28;20226;-76
2022/12/12 00:28:12;;;;;;;44.58;25.33;;;;;;;-0.68;100.00;99817.34;5077689;28;20566;-76
2022/12/12 00:30:40;;;;;;;56.20;29.65;;;;;;;-0.69;100.00;99820.88;5067655;28;20284;-78
2022/12/12 00:33:06;;;;;;;52.78;26.38;;;;;;;-0.69;100.00;99820.88;5073829;28;20264;-77
2022/12/12 00:35:33;;;;;;;47.10;27.13;;;;;;;-0.64;100.00;99819.06;5077465;28;20279;-76
2022/12/12 00:38:00;;;;;;;49.75;27.33;;;;;;;-0.63;100.00;99809.38;5074493;28;20231;-77
2022/12/12 00:40:26;;;;;;;52.13;28.17;;;;;;;-0.67;100.00;99821.75;5079714;28;20653;-75
2022/12/12 00:42:53;;;;;;;50.92;27.27;;;;;;;-0.66;100.00;99815.59;5070854;28;20279;-77
2022/12/12 00:45:19;;;;;;;47.97;26.17;;;;;;;-0.69;100.00;99823.53;5067339;28;20221;-76
2022/12/12 00:47:47;;;;;;;51.17;27.55;;;;;;;-0.66;100.00;99822.63;5076934;28;20269;-77
2022/12/12 00:50:14;;;;;;;54.42;27.30;;;;;;;-0.70;100.00;99824.44;5075828;28;20272;-76
2022/12/12 00:52:41;;;;;;;58.60;30.60;;;;;;;-0.73;100.00;99823.56;5067466;28;20231;-77
2022/12/12 00:55:10;;;;;;;54.45;29.90;;;;;;;-0.71;100.00;99827.94;5061962;28;20197;-75
2022/12/12 00:57:37;;;;;;;75.85;39.42;;;;;;;-0.65;100.00;99824.38;5040677;28;20300;-76
2022/12/12 01:00:05;;;;;;;58.97;31.80;;;;;;;-0.62;100.00;99837.56;5059034;28;20745;-76
2022/12/12 01:02:31;;;;;;;50.50;28.10;;;;;;;-0.70;100.00;99831.47;5057106;28;20205;-76
2022/12/12 01:04:59;;;;;;;52.25;27.02;;;;;;;-0.76;100.00;99827.13;5056801;28;20663;-76
2022/12/12 01:07:26;;;;;;;50.40;26.63;;;;;;;-0.68;100.00;99838.53;5056496;28;20283;-77
2022/12/12 01:09:52;;;;;;;56.83;28.83;;;;;;;-0.57;100.00;99837.53;5055692;28;20215;-75
2022/12/12 01:12:19;;;;;;;54.58;30.60;;;;;;;-0.57;100.00;99837.53;5054845;28;20204;-77
2022/12/12 01:14:45;;;;;;;51.67;27.88;;;;;;;-0.54;100.00;99833.09;5055825;28;20280;-76
2022/12/12 01:17:12;;;;;;;52.25;26.58;;;;;;;-0.48;100.00;99830.38;5056680;28;20281;-74
2022/12/12 01:19:39;;;;;;;47.22;27.65;;;;;;;-0.39;100.00;99840.00;5060065;28;20231;-74
2022/12/12 01:22:07;;;;;;;47.72;27.10;;;;;;;-0.37;100.00;99840.00;5069150;28;20288;-74
2022/12/12 01:24:33;;;;;;;48.53;26.77;;;;;;;-0.34;100.00;99845.25;5071565;28;20256;-74
2022/12/12 01:27:00;;;;;;;49.42;26.42;;;;;;;-0.35;100.00;99839.06;5071038;28;20522;-74
2022/12/12 01:29:26;;;;;;;56.45;29.33;;;;;;;-0.30;100.00;99841.69;5071706;28;20285;-74
2022/12/12 01:31:53;;;;;;;44.90;25.50;;;;;;;-0.32;100.00;99839.03;5080054;28;20204;-76
2022/12/12 01:34:20;;;;;;;56.15;26.70;;;;;;;-0.39;100.00;99840.00;5071803;28;20196;-75
2022/12/12 01:36:46;;;;;;;54.22;28.48;;;;;;;-0.42;100.00;99835.63;5059110;28;20197;-76
2022/12/12 01:39:14;;;;;;;55.90;30.17;;;;;;;-0.31;100.00;99832.88;5059613;28;20228;-76
2022/12/12 01:41:42;;;;;;;52.90;29.15;;;;;;;-0.38;100.00;99835.59;5060882;28;20284;-75
2022/12/12 01:44:38;;;;;;;53.45;29.00;;;;;;;-0.43;100.00;99838.25;5064005;28;20197;-76
2022/12/12 01:47:05;;;;;;;46.13;26.17;;;;;;;-0.38;100.00;99852.34;5045843;28;20260;-75
2022/12/12 01:49:33;;;;;;;47.40;26.30;;;;;;;-0.34;100.00;99848.78;5058692;28;20247;-77
2022/12/12 01:52:03;;;;;;;51.92;27.67;;;;;;;-0.34;100.00;99845.25;5067781;28;20287;-74
2022/12/12 01:54:34;;;;;;;47.83;26.63;;;;;;;-0.36;100.00;99847.03;5058584;28;20683;-77
2022/12/12 01:57:05;;;;;;;44.85;26.15;;;;;;;-0.42;100.00;99853.25;5057950;28;20276;-76
2022/12/12 01:59:33;;;;;;;50.03;28.35;;;;;;;-0.40;100.00;99843.53;5056515;28;20646;-76
2022/12/12 02:02:00;;;;;;;53.35;27.42;;;;;;;-0.43;100.00;99844.47;5058160;28;20284;-76
2022/12/12 02:04:28;;;;;;;50.80;27.70;;;;;;;-0.47;100.00;99836.56;5057729;28;20221;-78
2022/12/12 02:06:55;;;;;;;52.83;28.40;;;;;;;-0.46;100.00;99843.59;5057992;28;20206;-76
2022/12/12 02:09:24;;;;;;;52.72;26.27;;;;;;;-0.49;100.00;99847.16;5064058;28;20643;-74
2022/12/12 02:11:54;;;;;;;54.38;27.80;;;;;;;-0.47;100.00;99840.09;5070054;28;20480;-73
2022/12/12 02:14:26;;;;;;;50.00;27.10;;;;;;;-0.61;100.00;99839.34;5068348;28;20208;-73
2022/12/12 02:17:15;;;;;;;52.55;27.92;;;;;;;-0.65;100.00;99840.25;5067486;28;20276;-74
2022/12/12 02:20:16;;;;;;;50.00;26.98;;;;;;;-0.64;100.00;99840.22;5067369;28;20699;-74
2022/12/12 02:23:21;;;;;;;50.90;26.75;;;;;;;-0.57;100.00;99842.81;5039974;28;20277;-77
2022/12/12 02:26:23;;;;;;;49.67;26.75;;;;;;;-0.55;100.00;99847.19;4959305;29;20307;-75
2022/12/12 02:29:14;;;;;;;62.78;27.50;;;;;;;-0.65;100.00;99842.91;4959433;29;20220;-75
2022/12/12 02:31:50;;;;;;;57.30;27.50;;;;;;;-0.57;100.00;99840.16;4953996;29;20689;-75
2022/12/12 02:34:27;;;;;;;52.33;28.80;;;;;;;-0.51;100.00;99845.41;4966509;29;20224;-75
2022/12/12 02:37:01;;;;;;;61.47;32.30;;;;;;;-0.48;100.00;99848.03;4967850;29;20205;-76
2022/12/12 02:39:37;;;;;;;53.78;28.80;;;;;;;-0.49;100.00;99852.44;4966892;29;20266;-75
2022/12/12 02:42:08;;;;;;;50.70;27.00;;;;;;;-0.45;100.00;99853.31;4967819;29;20286;-74
2022/12/12 02:44:43;;;;;;;54.97;28.42;;;;;;;-0.50;100.00;99856.00;4966134;29;20644;-75
2022/12/12 02:47:16;;;;;;;51.05;27.52;;;;;;;-0.47;100.00;99852.44;4955705;29;20288;-75
2022/12/12 02:49:49;;;;;;;55.72;28.30;;;;;;;-0.47;100.00;99855.09;4956520;28;20224;-74
2022/12/12 02:52:18;;;;;;;57.35;30.30;;;;;;;-0.47;100.00;99850.66;4958801;29;20200;-75
2022/12/12 02:54:45;;;;;;;53.13;27.33;;;;;;;-0.51;100.00;99851.56;4955595;29;20192;-76
2022/12/12 02:57:15;;;;;;;48.28;26.85;;;;;;;-0.47;100.00;99850.66;4956399;29;20200;-76
2022/12/12 02:59:45;;;;;;;54.92;26.80;;;;;;;-0.47;100.00;99863.03;4960972;28;20220;-76
2022/12/12 03:02:31;;;;;;;51.13;27.35;;;;;;;-0.49;100.00;99856.84;4989440;28;20212;-76
2022/12/12 03:08:09;;;;;;;54.15;26.55;;;;;;;-0.46;100.00;99856.81;5076274;28;20207;-75
2022/12/12 03:10:47;;;;;;;58.33;29.10;;;;;;;-0.44;100.00;99863.84;5060854;28;20272;-74
2022/12/12 03:13:24;;;;;;;58.08;27.45;;;;;;;-0.47;100.00;99855.09;5077498;28;20215;-75
2022/12/12 03:16:02;;;;;;;52.92;27.52;;;;;;;-0.40;100.00;99862.06;5069519;28;20280;-75
2022/12/12 03:18:37;;;;;;;44.00;26.10;;;;;;;-0.36;100.00;99860.25;5067044;28;20254;-76
2022/12/12 03:21:08;;;;;;;48.30;27.27;;;;;;;-0.37;100.00;99856.72;5071475;28;20200;-75
2022/12/12 03:23:39;;;;;;;52.92;28.40;;;;;;;-0.36;100.00;99860.25;5053279;28;20212;-75
2022/12/12 03:26:12;;;;;;;60.22;30.23;;;;;;;-0.38;100.00;99857.63;5063064;28;20600;-75
2022/12/12 03:28:43;;;;;;;58.40;29.83;;;;;;;-0.34;100.00;99862.00;5054981;28;20221;-76
2022/12/12 03:31:13;;;;;;;52.83;28.27;;;;;;;-0.38;100.00;99860.28;5072439;28;20205;-77
2022/12/12 03:33:45;;;;;;;49.00;27.73;;;;;;;-0.38;100.00;99856.78;5070930;28;20193;-74
2022/12/12 03:36:16;;;;;;;56.08;26.98;;;;;;;-0.43;100.00;99852.41;5061310;28;20251;-77
2022/12/12 03:38:48;;;;;;;51.15;29.10;;;;;;;-0.38;100.00;99864.72;5064691;28;20703;-75
2022/12/12 03:41:20;;;;;;;54.45;27.92;;;;;;;-0.42;100.00;99858.56;5068895;28;20197;-75
2022/12/12 03:43:55;;;;;;;51.05;27.60;;;;;;;-0.36;100.00;99860.25;5075610;28;20283;-75
2022/12/12 03:46:27;;;;;;;49.05;25.88;;;;;;;-0.39;100.00;99865.59;5077274;28;20303;-74
2022/12/12 03:49:00;;;;;;;49.53;26.88;;;;;;;-0.32;100.00;99861.97;5083983;28;20284;-74
2022/12/12 03:51:29;;;;;;;46.33;26.05;;;;;;;-0.30;100.00;99855.78;5071204;28;20377;-75
2022/12/12 03:54:00;;;;;;;48.50;26.75;;;;;;;-0.39;100.00;99857.66;5061531;28;20307;-75
2022/12/12 03:56:31;;;;;;;48.78;28.40;;;;;;;-0.34;100.00;99861.13;5070950;28;20190;-75
2022/12/12 03:59:03;;;;;;;51.72;27.48;;;;;;;-0.29;100.00;99860.19;5070363;28;20224;-75
2022/12/12 04:01:37;;;;;;;50.95;27.48;;;;;;;-0.30;100.00;99860.19;5076261;28;20212;-76
2022/12/12 04:04:13;;;;;;;52.97;27.60;;;;;;;-0.36;100.00;99853.22;5067190;28;20486;-75
2022/12/12 04:06:45;;;;;;;54.00;28.83;;;;;;;-0.38;100.00;99860.28;5063918;28;20308;-76
2022/12/12 04:15:16;;;;;;;54.60;26.88;;;;;;;-0.48;100.00;99863.88;5060403;28;20208;-75
2022/12/12 04:17:51;;;;;;;59.00;27.77;;;;;;;-0.45;100.00;99858.59;5067266;28;20193;-74
2022/12/12 04:23:19;;;;;;;54.70;28.67;;;;;;;-0.31;100.00;99875.22;5070282;28;20701;-76
2022/12/12 04:28:53;;;;;;;53.63;28.40;;;;;;;-0.31;100.00;99876.97;5066008;28;20342;-75
2022/12/12 04:31:25;;;;;;;48.60;27.70;;;;;;;-0.34;100.00;99880.53;5076159;28;20210;-73
2022/12/12 04:33:58;;;;;;;51.83;29.15;;;;;;;-0.30;100.00;99884.88;5062879;28;20225;-75
2022/12/12 04:36:27;;;;;;;50.38;27.33;;;;;;;-0.31;100.00;99884.91;5058017;28;20261;-74
2022/12/12 04:38:55;;;;;;;51.80;28.70;;;;;;;-0.30;100.00;99884.00;5083045;22;20267;-70
2022/12/12 04:41:22;;;;;;;53.95;29.00;;;;;;;-0.28;100.00;99891.03;5021351;28;20588;-73
2022/12/12 04:43:51;;;;;;;54.80;29.35;;;;;;;-0.22;100.00;99896.28;5025174;28;20201;-73
2022/12/12 04:46:21;;;;;;;53.28;27.63;;;;;;;-0.14;100.00;99893.56;5028296;28;20230;-74
2022/12/12 04:48:52;;;;;;;48.17;25.23;;;;;;;-0.11;100.00;99901.47;5038563;28;20218;-72
2022/12/12 04:51:24;;;;;;;51.25;28.88;;;;;;;-0.04;100.00;99894.38;5033714;28;20591;-72
2022/12/12 04:53:56;;;;;;;52.90;27.90;;;;;;;0.02;100.00;99896.91;5035374;28;20213;-73
2022/12/12 04:56:27;;;;;;;48.33;27.55;;;;;;;0.06;100.00;99898.66;5040265;28;20821;-71
2022/12/12 04:58:54;;;;;;;50.05;26.92;;;;;;;0.09;100.00;99889.78;5024895;28;20690;-73
2022/12/12 05:01:25;;;;;;;52.40;26.08;;;;;;;0.06;100.00;99897.78;5042295;28;20659;-73
2022/12/12 05:03:57;;;;;;;43.72;27.15;;;;;;;0.05;100.00;99899.56;5029556;28;20584;-73
2022/12/12 05:06:30;;;;;;;43.28;24.88;;;;;;;-0.01;100.00;99900.47;5035212;28;20246;-72
2022/12/12 05:08:58;;;;;;;49.70;25.92;;;;;;;-0.06;100.00;99901.44;5026312;28;20190;-74
2022/12/12 05:11:25;;;;;;;45.20;24.70;;;;;;;-0.10;100.00;99897.06;5041521;28;20293;-73
2022/12/12 05:13:51;;;;;;;47.85;25.90;;;;;;;-0.07;100.00;99907.59;5043158;28;20213;-74
2022/12/12 05:16:22;;;;;;;50.00;26.60;;;;;;;-0.13;100.00;99903.25;5028494;28;20194;-73
2022/12/12 05:18:49;;;;;;;47.60;25.48;;;;;;;-0.11;100.00;99901.47;5026492;28;20658;-73
2022/12/12 05:21:16;;;;;;;53.17;26.40;;;;;;;-0.04;100.00;99910.25;5027605;28;20190;-76
2022/12/12 05:23:43;;;;;;;48.65;26.90;;;;;;;0.00;100.00;99906.69;5034627;28;20215;-73
2022/12/12 05:26:21;;;;;;;49.55;26.98;;;;;;;0.02;100.00;99907.50;5016281;28;20305;-74
2022/12/12 05:28:48;;;;;;;53.50;27.67;;;;;;;0.04;100.00;99915.44;5018671;28;20197;-72
2022/12/12 05:31:15;;;;;;;56.90;32.85;;;;;;;0.01;100.00;99911.06;5028450;28;20222;-73
2022/12/12 05:33:41;;;;;;;51.17;27.52;;;;;;;-0.15;100.00;99914.75;5048465;28;20288;-73
2022/12/12 05:36:08;;;;;;;43.35;24.58;;;;;;;-0.08;100.00;99912.03;5018742;28;20225;-74
2022/12/12 05:38:35;;;;;;;45.88;25.00;;;;;;;-0.09;100.00;99910.28;5039604;28;20750;-74
2022/12/12 05:41:02;;;;;;;52.30;25.70;;;;;;;-0.13;100.00;99913.84;5032620;28;20225;-71
2022/12/12 05:43:30;;;;;;;49.47;26.85;;;;;;;-0.13;100.00;99916.50;5026764;28;20195;-74
2022/12/12 05:45:57;;;;;;;48.28;25.98;;;;;;;-0.12;100.00;99914.72;5041446;28;20230;-73
2022/12/12 05:48:25;;;;;;;50.85;26.80;;;;;;;-0.26;100.00;99907.78;5032983;28;20203;-72
2022/12/12 05:50:51;;;;;;;57.35;28.15;;;;;;;-0.28;100.00;99920.16;5044298;28;20223;-72
2022/12/12 05:53:18;;;;;;;49.20;28.17;;;;;;;-0.29;100.00;99918.41;5032734;28;20281;-75
2022/12/12 05:55:44;;;;;;;37.67;24.08;;;;;;;-0.25;100.00;99916.59;5041683;28;20205;-73
2022/12/12 05:58:11;;;;;;;48.53;26.27;;;;;;;-0.19;100.00;99915.69;5039710;28;20202;-72
2022/12/12 06:00:39;;;;;;;46.88;26.05;;;;;;;-0.16;100.00;99918.28;5046376;28;20225;-75
2022/12/12 06:03:06;;;;;;;56.17;27.13;;;;;;;-0.11;100.00;99921.78;5034208;28;20202;-73
2022/12/12 06:05:32;;;;;;;50.10;26.10;;;;;;;-0.24;100.00;99927.19;5049219;28;20227;-74
2022/12/12 06:07:59;;;;;;;48.80;26.42;;;;;;;-0.36;100.00;99932.59;5046471;28;20201;-75
2022/12/12 06:10:26;;;;;;;47.70;27.17;;;;;;;-0.28;100.00;99930.75;5032042;28;20237;-74
2022/12/12 06:12:52;;;;;;;51.25;27.38;;;;;;;-0.27;100.00;99924.56;5042994;28;20223;-73
2022/12/12 06:15:19;;;;;;;45.53;26.10;;;;;;;-0.27;100.00;99921.94;5049247;28;20201;-72
2022/12/12 06:17:46;;;;;;;46.10;25.58;;;;;;;-0.30;100.00;99921.94;5042410;28;20201;-73
2022/12/12 06:20:13;;;;;;;46.05;25.30;;;;;;;-0.30;100.00;99921.94;5037830;28;20600;-73
2022/12/12 06:22:41;;;;;;;45.20;25.80;;;;;;;-0.37;100.00;99933.47;5048943;28;20197;-72
2022/12/12 06:25:08;;;;;;;47.47;26.13;;;;;;;-0.32;100.00;99934.28;5038354;28;20199;-73
2022/12/12 06:27:35;;;;;;;50.10;26.90;;;;;;;-0.29;100.00;99934.28;5026315;28;20217;-71
2022/12/12 06:30:02;;;;;;;57.67;30.33;;;;;;;-0.30;100.00;99935.16;5043163;28;20316;-73
2022/12/12 06:32:28;;;;;;;50.22;28.00;;;;;;;-0.27;100.00;99929.88;5057826;28;20687;-74
2022/12/12 06:34:56;;;;;;;50.53;25.33;;;;;;;-0.30;100.00;99932.50;5037363;28;20198;-71
2022/12/12 06:37:23;;;;;;;54.55;25.95;;;;;;;-0.26;100.00;99931.59;5041533;28;20194;-73
2022/12/12 06:39:50;;;;;;;43.80;26.05;;;;;;;-0.33;100.00;99939.63;5055730;28;20331;-72
2022/12/12 06:42:16;;;;;;;44.33;24.33;;;;;;;-0.38;100.00;99931.72;5038498;28;20675;-72
2022/12/12 06:44:43;;;;;;;47.35;25.00;;;;;;;-0.44;100.00;99937.94;5041155;28;20194;-73
2022/12/12 06:47:09;;;;;;;44.38;25.98;;;;;;;-0.42;100.00;99944.09;5034781;28;20312;-70
2022/12/12 06:49:36;;;;;;;50.70;26.40;;;;;;;-0.36;100.00;99943.19;5044170;28;20229;-74
2022/12/12 06:52:04;;;;;;;51.33;27.70;;;;;;;-0.38;100.00;99947.59;5043641;28;20194;-73
2022/12/12 06:54:31;;;;;;;45.80;25.55;;;;;;;-0.40;100.00;99954.66;5033275;28;20727;-74
2022/12/12 06:56:57;;;;;;;46.33;25.23;;;;;;;-0.44;100.00;99951.16;5045284;28;20204;-74
2022/12/12 06:59:24;;;;;;;46.90;28.08;;;;;;;-0.36;100.00;99947.56;5043261;28;20235;-74
2022/12/12 07:01:50;;;;;;;47.15;26.00;;;;;;;-0.36;100.00;99950.22;5037961;28;20647;-71
2022/12/12 07:04:17;;;;;;;50.60;25.88;;;;;;;-0.47;100.00;99955.63;5037850;28;20229;-74
2022/12/12 07:06:43;;;;;;;50.30;25.08;;;;;;;-0.64;100.00;99959.22;5035835;28;20232;-74
2022/12/12 07:09:11;;;;;;;43.05;25.20;;;;;;;-0.58;100.00;99957.47;5034388;28;20562;-71
2022/12/12 07:11:39;;;;;;;45.63;25.75;;;;;;;-0.51;100.00;99962.69;5035275;28;20198;-73
2022/12/12 07:14:06;;;;;;;45.53;25.60;;;;;;;-0.47;100.00;99967.06;5037043;28;20624;-73
2022/12/12 07:16:33;;;;;;;44.83;24.98;;;;;;;-0.49;100.00;99971.50;5040103;28;20199;-74
2022/12/12 07:18:59;;;;;;;48.25;24.35;;;;;;;-0.50;100.00;99967.09;5016190;28;20230;-72
2022/12/12 07:21:26;;;;;;;52.17;27.55;;;;;;;-0.49;100.00;99965.31;5017323;28;20193;-74
2022/12/12 07:23:53;;;;;;;47.55;25.17;;;;;;;-0.48;100.00;99969.72;5032422;28;20595;-72
2022/12/12 07:26:23;;;;;;;52.10;27.45;;;;;;;-0.47;100.00;99975.00;5020327;28;20222;-72
2022/12/12 07:28:50;;;;;;;42.08;23.67;;;;;;;-0.40;100.00;99972.31;5034051;28;20207;-71
2022/12/12 07:31:19;;;;;;;63.25;30.20;;;;;;;-0.42;100.00;99975.84;5026096;28;20542;-72
2022/12/12 07:33:45;;;;;;;53.80;27.90;;;;;;;-0.44;100.00;99971.44;5046905;28;20698;-73
2022/12/12 07:36:14;;;;;;;47.95;25.50;;;;;;;-0.45;100.00;99975.88;5037847;28;20588;-74
2022/12/12 07:38:40;;;;;;;47.65;25.85;;;;;;;-0.48;100.00;99978.53;5040140;28;20210;-72
2022/12/12 07:41:09;;;;;;;48.83;25.60;;;;;;;-0.44;100.00;99979.38;5042939;28;20223;-73
2022/12/12 07:43:39;;;;;;;43.42;23.90;;;;;;;-0.42;100.00;99983.78;5042088;28;20216;-71
2022/12/12 07:46:07;;;;;;;47.08;26.60;;;;;;;-0.42;100.00;99986.41;5041780;28;20214;-73
2022/12/12 07:48:33;;;;;;;40.97;23.80;;;;;;;-0.44;100.00;99982.91;5061250;28;20280;-72
2022/12/12 07:51:01;;;;;;;51.33;25.77;;;;;;;-0.46;100.00;99986.47;5038834;28;20228;-73
2022/12/12 07:53:28;;;;;;;46.65;24.27;;;;;;;-0.47;100.00;100003.22;5025871;28;20217;-72
2022/12/12 07:55:56;;;;;;;44.75;23.92;;;;;;;-0.52;100.00;100003.25;5025042;28;20210;-73
2022/12/12 07:58:23;;;;;;;45.33;25.45;;;;;;;-0.59;100.00;100004.16;5044305;28;20202;-72
2022/12/12 08:00:51;;;;;;;52.63;26.90;;;;;;;-0.65;100.00;100005.09;5031490;28;20222;-73
2022/12/12 08:03:18;;;;;;;43.65;24.60;;;;;;;-0.68;100.00;100012.16;5034754;28;20732;-73
2022/12/12 08:05:45;;;;;;;49.05;25.85;;;;;;;-0.65;100.00;100006.88;5037125;28;20202;-71
2022/12/12 08:08:12;;;;;;;52.85;26.15;;;;;;;-0.58;100.00;100013.00;5028459;28;20214;-73
2022/12/12 08:10:39;;;;;;;48.90;25.67;;;;;;;-0.56;100.00;100019.16;5025105;28;20305;-73
2022/12/12 08:13:06;;;;;;;57.00;28.77;;;;;;;-0.52;100.00;100010.28;5024758;28;20657;-72
2022/12/12 08:15:33;;;;;;;54.78;27.52;;;;;;;-0.40;100.00;100012.88;5030001;28;20205;-73
2022/12/12 08:18:01;;;;;;;46.05;25.55;;;;;;;-0.25;100.00;100015.41;5026596;28;20727;-72
2022/12/12 08:20:27;;;;;;;48.17;25.73;;;;;;;-0.15;100.00;100018.00;5041282;28;20220;-73
2022/12/12 08:22:54;;;;;;;50.03;25.38;;;;;;;-0.12;100.00;100021.47;5031498;28;20209;-74
2022/12/12 08:25:20;;;;;;;52.55;25.90;;;;;;;-0.03;100.00;100015.22;5032082;28;20208;-71
2022/12/12 08:27:47;;;;;;;52.55;26.73;;;;;;;0.08;100.00;100023.09;5029216;28;20394;-72
2022/12/12 08:30:14;;;;;;;50.08;25.73;;;;;;;0.36;100.00;100024.59;5030933;28;20786;-73
2022/12/12 08:32:40;;;;;;;49.88;25.33;;;;;;;0.67;100.00;100018.97;5027989;28;20197;-73
2022/12/12 08:35:09;;;;;;;47.65;25.15;;;;;;;0.97;100.00;100028.34;5033305;28;20194;-72
2022/12/12 08:37:35;;;;;;;45.65;24.75;;;;;;;1.61;100.00;100023.94;5032983;28;20209;-73
2022/12/12 08:40:02;;;;;;;47.33;25.23;;;;;;;1.80;100.00;100031.63;5033710;28;20253;-72
2022/12/12 08:42:29;;;;;;;39.22;23.05;;;;;;;2.08;100.00;100034.69;5032266;28;20208;-72
2022/12/12 08:44:55;;;;;;;39.67;23.10;;;;;;;1.96;100.00;100032.25;5039644;28;20197;-72
2022/12/12 08:47:22;;;;;;;41.78;23.98;;;;;;;1.80;100.00;100031.63;5030858;28;20219;-75
2022/12/12 08:49:49;;;;;;;35.67;22.42;;;;;;;1.80;100.00;100027.19;5030318;28;20231;-73
2022/12/12 08:52:16;;;;;;;44.67;23.23;;;;;;;1.76;100.00;100028.13;5036096;28;20198;-73
2022/12/12 08:54:43;;;;;;;43.05;24.27;;;;;;;1.91;100.00;100023.50;5039682;28;20199;-73
2022/12/12 08:57:10;;;;;;;32.83;20.77;;;;;;;2.16;100.00;100032.81;5040711;28;20204;-71
2022/12/12 08:59:36;;;;;;;39.42;22.73;;;;;;;2.59;100.00;100039.16;5036343;28;20251;-72
2022/12/12 09:02:03;;;;;;;42.83;22.98;;;;;;;2.99;100.00;100036.59;5028913;28;20667;-72
2022/12/12 09:04:30;;;;;;;48.65;25.63;;;;;;;3.14;100.00;100032.72;5022686;28;20204;-72
2022/12/12 09:06:56;;;;;;;37.13;22.52;;;;;;;3.31;100.00;100030.59;5040176;28;20695;-75
2022/12/12 09:09:24;;;;;;;32.70;20.73;;;;;;;2.80;100.00;100037.84;5033789;28;20663;-73
2022/12/12 09:11:50;;;;;;;37.72;21.50;;;;;;;1.86;100.00;100036.84;5029209;28;20211;-73
2022/12/12 09:14:17;;;;;;;39.35;23.90;;;;;;;1.97;100.00;100037.56;5024324;28;20562;-72
2022/12/12 09:16:44;;;;;;;34.10;21.83;;;;;;;1.79;100.00;100044.03;5032544;28;20570;-74
2022/12/12 09:19:10;;;;;;;36.15;22.67;;;;;;;2.21;100.00;100046.88;5032646;28;20230;-73
2022/12/12 09:21:37;;;;;;;37.30;22.42;;;;;;;2.41;100.00;100048.34;5031952;28;20238;-73
2022/12/12 09:24:04;;;;;;;32.13;21.40;;;;;;;2.79;100.00;100052.06;5033926;28;20208;-74
2022/12/12 09:26:32;;;;;;;45.15;24.60;;;;;;;3.12;100.00;100047.84;5033144;28;20659;-73
2022/12/12 09:28:58;;;;;;;37.15;19.25;;;;;;;3.01;100.00;100047.19;5026790;28;20574;-74
2022/12/12 09:31:25;;;;;;;36.90;22.05;;;;;;;3.05;100.00;100049.78;5033190;28;20203;-71
2022/12/12 09:33:51;;;;;;;38.20;22.92;;;;;;;3.01;100.00;100055.16;5037300;28;20208;-74
2022/12/12 09:36:18;;;;;;;34.45;21.73;;;;;;;2.97;100.00;100065.00;5044764;28;20195;-72
2022/12/12 09:38:45;;;;;;;42.15;22.65;;;;;;;2.93;100.00;100072.16;5046225;28;20200;-74
2022/12/12 09:41:14;;;;;;;37.25;22.65;;;;;;;3.18;100.00;100060.16;5031718;28;20215;-73
2022/12/12 09:43:50;;;;;;;31.48;21.00;;;;;;;3.06;100.00;100064.84;5034702;28;20673;-73
2022/12/12 09:46:26;;;;;;;33.67;21.50;;;;;;;3.02;100.00;100070.25;5028309;28;20196;-73
2022/12/12 09:48:57;;;;;;;35.30;21.13;;;;;;;3.19;100.00;100057.47;5043152;28;20703;-74
2022/12/12 09:51:23;;;;;;;39.45;21.73;;;;;;;3.49;100.00;100055.94;5030671;28;20232;-73
2022/12/12 09:53:50;;;;;;;36.00;21.58;;;;;;;4.10;100.00;100058.97;5038188;28;20208;-71
2022/12/12 09:56:24;;;;;;;35.90;22.95;;;;;;;5.72;100.00;100063.44;5032608;28;20292;-71
2022/12/12 09:58:58;;;;;;;39.53;25.85;;;;;;;6.96;100.00;100057.56;5030298;28;20271;-72
2022/12/12 10:01:31;;;;;;;33.03;21.70;;;;;;;7.56;100.00;100047.31;5036933;28;20221;-74
2022/12/12 10:04:11;;;;;;;35.25;22.88;;;;;;;7.75;100.00;100052.81;5039661;28;20284;-73
2022/12/12 10:06:43;;;;;;;33.42;23.10;;;;;;;7.92;100.00;100058.41;5045792;28;20213;-72
2022/12/12 10:09:27;;;;;;;35.10;22.98;;;;;;;7.65;100.00;100049.63;5045831;28;20221;-72
2022/12/12 10:11:55;;;;;;;31.50;21.40;;;;;;;6.33;100.00;100055.28;5037856;28;20197;-72
2022/12/12 10:14:28;;;;;;;36.85;24.85;;;;;;;5.34;100.00;100037.88;5035465;28;20294;-74
2022/12/12 10:16:58;;;;;;;38.25;24.48;;;;;;;4.74;100.00;100042.25;5030196;28;20205;-74
2022/12/12 10:19:29;;;;;;;37.38;23.08;;;;;;;4.55;100.00;100040.06;5041218;28;20300;-73
2022/12/12 10:22:02;;;;;;;35.25;23.27;;;;;;;4.15;100.00;100046.41;5043927;28;20206;-74
2022/12/12 10:24:33;;;;;;;36.40;22.63;;;;;;;3.61;100.00;100035.28;5037244;28;20198;-72
2022/12/12 10:27:08;;;;;;;46.35;26.83;;;;;;;3.54;100.00;100046.06;5021607;28;20216;-72
2022/12/12 10:29:37;;;;;;;38.80;23.02;;;;;;;3.50;100.00;100047.03;5027430;28;20237;-73
2022/12/12 10:32:14;;;;;;;34.83;21.70;;;;;;;3.39;100.00;100042.84;5036955;28;20206;-74
2022/12/12 10:34:54;;;;;;;37.25;22.45;;;;;;;3.17;100.00;100043.34;5038311;28;20206;-71
2022/12/12 10:37:36;;;;;;;35.35;23.38;;;;;;;3.18;100.00;100052.19;5044581;28;20741;-72
2022/12/12 10:40:16;;;;;;;40.80;24.63;;;;;;;3.11;100.00;100054.97;5076782;22;20224;-76
2022/12/12 10:42:49;;;;;;;39.45;22.13;;;;;;;3.08;100.00;100048.84;5057189;28;20177;-77
2022/12/12 10:45:34;;;;;;;39.67;24.35;;;;;;;2.76;100.00;100052.13;5057098;28;20230;-75
2022/12/12 10:48:01;;;;;;;53.10;32.10;;;;;;;2.76;100.00;100060.09;5047320;28;20328;-77
2022/12/12 10:50:33;;;;;;;41.38;25.95;;;;;;;2.58;100.00;100051.56;5054647;28;20218;-75
2022/12/12 10:53:01;;;;;;;37.88;25.08;;;;;;;2.53;100.00;100052.53;5074241;28;20202;-74
2022/12/12 10:55:37;;;;;;;42.60;24.30;;;;;;;2.45;100.00;100045.59;5069815;28;20284;-76
2022/12/12 10:58:05;;;;;;;41.05;23.58;;;;;;;2.53;100.00;100056.06;5072857;28;20191;-74
2022/12/12 11:00:35;;;;;;;41.80;23.15;;;;;;;2.35;100.00;100056.41;5065406;28;20284;-76
2022/12/12 11:03:14;;;;;;;38.92;23.95;;;;;;;2.17;100.00;100054.94;5068198;28;20204;-75
2022/12/12 11:05:41;;;;;;;42.45;24.80;;;;;;;1.94;100.00;100050.00;5075346;28;20254;-75
2022/12/12 11:08:20;;;;;;;40.45;24.45;;;;;;;1.97;100.00;100047.31;5066133;28;20279;-74
2022/12/12 11:10:59;;;;;;;41.90;24.63;;;;;;;2.07;100.00;100047.13;5066660;28;20226;-76
2022/12/12 11:13:25;;;;;;;43.10;24.10;;;;;;;1.67;100.00;100038.88;5074178;28;20184;-75
2022/12/12 11:15:58;;;;;;;43.75;23.92;;;;;;;1.90;100.00;100042.97;5064416;28;20290;-75
2022/12/12 11:18:26;;;;;;;39.42;23.50;;;;;;;1.95;100.00;100039.34;5061278;28;20190;-76
2022/12/12 11:21:01;;;;;;;42.15;24.48;;;;;;;2.08;100.00;100037.34;5061967;28;20257;-74
2022/12/12 11:23:30;;;;;;;43.08;25.05;;;;;;;2.25;100.00;100035.31;5058696;28;20217;-74
2022/12/12 11:25:59;;;;;;;38.38;23.42;;;;;;;2.15;100.00;100044.34;5057066;28;20265;-75
2022/12/12 11:28:29;;;;;;;39.20;24.30;;;;;;;2.12;100.00;100040.84;5053861;28;20244;-75
2022/12/12 11:31:01;;;;;;;37.78;23.70;;;;;;;2.13;100.00;100040.84;5054660;28;20218;-76
2022/12/12 11:33:32;;;;;;;41.72;24.75;;;;;;;2.21;100.00;100043.34;5055521;28;20715;-76
2022/12/12 11:36:00;;;;;;;35.28;20.52;;;;;;;2.09;100.00;100041.78;5052849;28;20222;-76